sensor_id;sensor_type;location;lat;lon;timestamp;pressure;altitude;pressure_sealevel;temperature;humidity
10060;BME280;5069;49.306;8.636;2023-09-19T00:00:07;100041.91;;;18.66;100.00
10060;BME280;5069;49.306;8.636;2023-09-19T00:03:08;100044.69;;;18.64;100.00
10060;BME280;5069;49.306;8.636;2023-09-19T00:06:10;100056.03;;;18.68;100.00
10060;BME280;5069;49.306;8.636;2023-09-19T00:09:14;100053.34;;;18.68;100.00
10060;BME280;5069;49.306;8.636;2023-09-19T00:12:16;100051.75;;;18.65;100.00
10060;BME280;5069;49.306;8.636;2023-09-19T00:15:17;100056.47;;;18.62;100.00
10060;BME280;5069;49.306;8.636;2023-09-19T00:18:20;100058.38;;;18.60;100.00
10060;BME280;5069;49.306;8.636;2023-09-19T00:21:31;100050.47;;;18.58;100.00
10060;BME280;5069;49.306;8.636;2023-09-19T00:24:33;100062.66;;;18.62;100.00
10060;BME280;5069;49.306;8.636;2023-09-19T00:27:34;100058.38;;;18.60;100.00
10060;BME280;5069;49.306;8.636;2023-09-19T00:30:36;100059.22;;;18.60;100.00
10060;BME280;5069;49.306;8.636;2023-09-19T00:33:39;100064.78;;;18.57;100.00
10060;BME280;5069;49.306;8.636;2023-09-19T00:36:41;100067.16;;;18.62;100.00
10060;BME280;5069;49.306;8.636;2023-09-19T00:39:44;100070.78;;;18.61;100.00
10060;BME280;5069;49.306;8.636;2023-09-19T00:42:46;100075.34;;;18.58;100.00
10060;BME280;5069;49.306;8.636;2023-09-19T00:45:49;100080.13;;;18.53;100.00
10060;BME280;5069;49.306;8.636;2023-09-19T00:48:52;100078.44;;;18.52;100.00
10060;BME280;5069;49.306;8.636;2023-09-19T00:51:54;100084.97;;;18.48;100.00
10060;BME280;5069;49.306;8.636;2023-09-19T00:54:56;100084.19;;;18.46;100.00
10060;BME280;5069;49.306;8.636;2023-09-19T00:57:58;100087.53;;;18.37;100.00
10060;BME280;5069;49.306;8.636;2023-09-19T01:01:00;100088.50;;;18.36;100.00
10060;BME280;5069;49.306;8.636;2023-09-19T01:04:02;100093.16;;;18.45;100.00
10060;BME280;5069;49.306;8.636;2023-09-19T01:07:04;100091.25;;;18.47;100.00
10060;BME280;5069;49.306;8.636;2023-09-19T01:10:07;100098.97;;;18.39;100.00
10060;BME280;5069;49.306;8.636;2023-09-19T01:13:29;100099.25;;;18.35;100.00
10060;BME280;5069;49.306;8.636;2023-09-19T01:16:42;100103.53;;;18.37;100.00
10060;BME280;5069;49.306;8.636;2023-09-19T01:30:19;100107.41;;;18.33;100.00
10060;BME280;5069;49.306;8.636;2023-09-19T01:33:23;100099.41;;;18.33;100.00
10060;BME280;5069;49.306;8.636;2023-09-19T01:36:35;100100.69;;;18.28;100.00
10060;BME280;5069;49.306;8.636;2023-09-19T01:39:38;100103.97;;;18.31;100.00
10060;BME280;5069;49.306;8.636;2023-09-19T01:46:13;100107.28;;;18.22;100.00
10060;BME280;5069;49.306;8.636;2023-09-19T01:49:33;100111.34;;;18.15;100.00
10060;BME280;5069;49.306;8.636;2023-09-19T01:52:43;100117.53;;;18.28;100.00
10060;BME280;5069;49.306;8.636;2023-09-19T01:55:49;100116.69;;;18.28;100.00
10060;BME280;5069;49.306;8.636;2023-09-19T01:58:56;100115.50;;;18.19;100.00
10060;BME280;5069;49.306;8.636;2023-09-19T02:02:01;100130.75;;;18.17;100.00
10060;BME280;5069;49.306;8.636;2023-09-19T02:05:04;100131.19;;;18.11;100.00
10060;BME280;5069;49.306;8.636;2023-09-19T02:08:05;100129.69;;;18.20;100.00
10060;BME280;5069;49.306;8.636;2023-09-19T02:11:07;100137.78;;;18.18;100.00
10060;BME280;5069;49.306;8.636;2023-09-19T02:14:08;100137.78;;;18.18;100.00
10060;BME280;5069;49.306;8.636;2023-09-19T02:17:10;100139.50;;;18.19;100.00
10060;BME280;5069;49.306;8.636;2023-09-19T02:20:13;100137.59;;;18.21;100.00
10060;BME280;5069;49.306;8.636;2023-09-19T02:23:16;100144.22;;;18.28;100.00
10060;BME280;5069;49.306;8.636;2023-09-19T02:26:18;100149.00;;;18.23;100.00
10060;BME280;5069;49.306;8.636;2023-09-19T02:29:21;100148.13;;;18.23;100.00
10060;BME280;5069;49.306;8.636;2023-09-19T02:32:23;100149.97;;;18.22;100.00
10060;BME280;5069;49.306;8.636;2023-09-19T02:35:25;100148.03;;;18.24;100.00
10060;BME280;5069;49.306;8.636;2023-09-19T02:38:27;100150.63;;;18.26;100.00
10060;BME280;5069;49.306;8.636;2023-09-19T02:41:30;100154.44;;;18.47;100.00
10060;BME280;5069;49.306;8.636;2023-09-19T02:44:31;100162.34;;;18.48;100.00
10060;BME280;5069;49.306;8.636;2023-09-19T02:47:34;100161.06;;;18.41;100.00
10060;BME280;5069;49.306;8.636;2023-09-19T02:50:36;100166.41;;;18.41;100.00
10060;BME280;5069;49.306;8.636;2023-09-19T02:53:38;100167.69;;;18.36;100.00
10060;BME280;5069;49.306;8.636;2023-09-19T02:56:40;100163.97;;;18.38;100.00
10060;BME280;5069;49.306;8.636;2023-09-19T02:59:41;100170.69;;;18.31;100.00
10060;BME280;5069;49.306;8.636;2023-09-19T03:02:44;100166.72;;;18.37;100.00
10060;BME280;5069;49.306;8.636;2023-09-19T03:05:46;100162.56;;;18.33;100.00
10060;BME280;5069;49.306;8.636;2023-09-19T03:08:51;100164.50;;;18.31;100.00
10060;BME280;5069;49.306;8.636;2023-09-19T03:11:55;100161.72;;;18.32;100.00
10060;BME280;5069;49.306;8.636;2023-09-19T03:14:57;100175.16;;;18.31;100.00
10060;BME280;5069;49.306;8.636;2023-09-19T03:17:58;100181.78;;;18.25;100.00
10060;BME280;5069;49.306;8.636;2023-09-19T03:21:01;100181.78;;;18.25;100.00
10060;BME280;5069;49.306;8.636;2023-09-19T03:24:04;100180.06;;;18.24;100.00
10060;BME280;5069;49.306;8.636;2023-09-19T03:27:09;100193.28;;;18.13;100.00
10060;BME280;5069;49.306;8.636;2023-09-19T03:30:12;100193.81;;;18.18;100.00
10060;BME280;5069;49.306;8.636;2023-09-19T03:33:16;100189.44;;;18.17;100.00
10060;BME280;5069;49.306;8.636;2023-09-19T03:36:18;100201.63;;;18.21;100.00
10060;BME280;5069;49.306;8.636;2023-09-19T03:39:23;100206.66;;;18.26;100.00
10060;BME280;5069;49.306;8.636;2023-09-19T03:42:24;100206.84;;;18.23;100.00
10060;BME280;5069;49.306;8.636;2023-09-19T03:45:28;100200.13;;;18.30;100.00
10060;BME280;5069;49.306;8.636;2023-09-19T03:48:30;100203.13;;;18.25;100.00
10060;BME280;5069;49.306;8.636;2023-09-19T03:51:32;100210.16;;;18.26;100.00
10060;BME280;5069;49.306;8.636;2023-09-19T03:54:35;100202.34;;;18.23;100.00
10060;BME280;5069;49.306;8.636;2023-09-19T03:57:37;100212.75;;;18.28;100.00
10060;BME280;5069;49.306;8.636;2023-09-19T04:00:39;100215.81;;;18.34;100.00
10060;BME280;5069;49.306;8.636;2023-09-19T04:03:41;100207.00;;;18.34;100.00
10060;BME280;5069;49.306;8.636;2023-09-19T04:06:49;100214.00;;;18.35;100.00
10060;BME280;5069;49.306;8.636;2023-09-19T04:09:51;100217.84;;;18.31;100.00
10060;BME280;5069;49.306;8.636;2023-09-19T04:12:55;100215.28;;;18.29;100.00
10060;BME280;5069;49.306;8.636;2023-09-19T04:15:57;100216.13;;;18.30;100.00
10060;BME280;5069;49.306;8.636;2023-09-19T04:18:58;100227.44;;;18.21;100.00
10060;BME280;5069;49.306;8.636;2023-09-19T04:22:00;100218.50;;;18.22;100.00
10060;BME280;5069;49.306;8.636;2023-09-19T04:25:02;100226.28;;;18.25;100.00
10060;BME280;5069;49.306;8.636;2023-09-19T04:28:04;100232.28;;;18.28;100.00
10060;BME280;5069;49.306;8.636;2023-09-19T04:31:07;100230.25;;;18.32;100.00
10060;BME280;5069;49.306;8.636;2023-09-19T04:34:09;100225.97;;;18.29;100.00
10060;BME280;5069;49.306;8.636;2023-09-19T04:37:11;100229.72;;;18.27;100.00
10060;BME280;5069;49.306;8.636;2023-09-19T04:40:14;100236.84;;;18.26;100.00
10060;BME280;5069;49.306;8.636;2023-09-19T04:43:19;100242.38;;;18.23;100.00
10060;BME280;5069;49.306;8.636;2023-09-19T04:46:20;100242.59;;;18.20;100.00
10060;BME280;5069;49.306;8.636;2023-09-19T04:49:22;100252.63;;;18.16;100.00
10060;BME280;5069;49.306;8.636;2023-09-19T04:52:23;100246.44;;;18.16;100.00
10060;BME280;5069;49.306;8.636;2023-09-19T04:55:25;100252.19;;;18.10;100.00
10060;BME280;5069;49.306;8.636;2023-09-19T04:58:27;100256.84;;;18.06;100.00
10060;BME280;5069;49.306;8.636;2023-09-19T05:01:29;100256.22;;;18.03;100.00
10060;BME280;5069;49.306;8.636;2023-09-19T05:04:30;100256.63;;;17.97;100.00
10060;BME280;5069;49.306;8.636;2023-09-19T05:07:34;100255.00;;;17.94;100.00
10060;BME280;5069;49.306;8.636;2023-09-19T05:10:35;100258.81;;;17.90;100.00
10060;BME280;5069;49.306;8.636;2023-09-19T05:13:40;100263.91;;;17.81;100.00
10060;BME280;5069;49.306;8.636;2023-09-19T05:16:42;100262.84;;;17.83;100.00
10060;BME280;5069;49.306;8.636;2023-09-19T05:19:44;100263.56;;;17.72;100.00
10060;BME280;5069;49.306;8.636;2023-09-19T05:22:47;100274.03;;;17.75;100.00
10060;BME280;5069;49.306;8.636;2023-09-19T05:25:49;100284.16;;;17.70;100.00
10060;BME280;5069;49.306;8.636;2023-09-19T05:28:51;100284.16;;;17.70;100.00
10060;BME280;5069;49.306;8.636;2023-09-19T05:31:54;100294.34;;;17.64;100.00
10060;BME280;5069;49.306;8.636;2023-09-19T05:34:56;100289.28;;;17.59;100.00
10060;BME280;5069;49.306;8.636;2023-09-19T05:37:58;100286.88;;;17.55;100.00
10060;BME280;5069;49.306;8.636;2023-09-19T05:40:59;100289.28;;;17.59;100.00
10060;BME280;5069;49.306;8.636;2023-09-19T05:44:01;100299.06;;;17.73;100.00
10060;BME280;5069;49.306;8.636;2023-09-19T05:47:04;100296.88;;;17.80;100.00
10060;BME280;5069;49.306;8.636;2023-09-19T05:50:06;100296.06;;;17.92;100.00
10060;BME280;5069;49.306;8.636;2023-09-19T05:53:10;100291.28;;;17.97;100.00
10060;BME280;5069;49.306;8.636;2023-09-19T05:56:16;100298.78;;;18.04;100.00
10060;BME280;5069;49.306;8.636;2023-09-19T05:59:20;100304.47;;;18.12;100.00
10060;BME280;5069;49.306;8.636;2023-09-19T06:02:21;100301.91;;;18.11;100.00
10060;BME280;5069;49.306;8.636;2023-09-19T06:05:24;100301.91;;;18.11;100.00
10060;BME280;5069;49.306;8.636;2023-09-19T06:08:28;100308.53;;;18.18;100.00
10060;BME280;5069;49.306;8.636;2023-09-19T06:11:30;100314.28;;;18.12;100.00
10060;BME280;5069;49.306;8.636;2023-09-19T06:14:33;100307.66;;;18.05;100.00
10060;BME280;5069;49.306;8.636;2023-09-19T06:17:35;100313.72;;;18.07;100.00
10060;BME280;5069;49.306;8.636;2023-09-19T06:20:39;100315.34;;;18.09;100.00
10060;BME280;5069;49.306;8.636;2023-09-19T06:23:45;100324.84;;;18.13;100.00
10060;BME280;5069;49.306;8.636;2023-09-19T06:26:47;100326.66;;;18.13;100.00
10060;BME280;5069;49.306;8.636;2023-09-19T06:29:49;100335.38;;;18.02;100.00
10060;BME280;5069;49.306;8.636;2023-09-19T06:32:57;100341.97;;;17.97;100.00
10060;BME280;5069;49.306;8.636;2023-09-19T06:35:59;100336.59;;;18.11;100.00
10060;BME280;5069;49.306;8.636;2023-09-19T06:39:01;100345.25;;;18.14;100.00
10060;BME280;5069;49.306;8.636;2023-09-19T06:42:05;100338.84;;;18.17;100.00
10060;BME280;5069;49.306;8.636;2023-09-19T06:45:08;100341.16;;;18.09;100.00
10060;BME280;5069;49.306;8.636;2023-09-19T06:48:10;100342.88;;;18.10;100.00
10060;BME280;5069;49.306;8.636;2023-09-19T06:51:11;100349.81;;;18.12;100.00
10060;BME280;5069;49.306;8.636;2023-09-19T06:54:13;100351.63;;;18.12;100.00
10060;BME280;5069;49.306;8.636;2023-09-19T06:57:15;100353.81;;;18.20;100.00
10060;BME280;5069;49.306;8.636;2023-09-19T07:00:17;100346.03;;;18.29;100.00
10060;BME280;5069;49.306;8.636;2023-09-19T07:03:23;100366.25;;;18.33;100.00
10060;BME280;5069;49.306;8.636;2023-09-19T07:06:28;100368.69;;;18.36;100.00
10060;BME280;5069;49.306;8.636;2023-09-19T07:09:29;100368.38;;;18.41;100.00
10060;BME280;5069;49.306;8.636;2023-09-19T07:12:31;100367.34;;;18.43;100.00
10060;BME280;5069;49.306;8.636;2023-09-19T07:15:34;100363.09;;;18.53;100.00
10060;BME280;5069;49.306;8.636;2023-09-19T07:18:38;100372.44;;;18.61;100.00
10060;BME280;5069;49.306;8.636;2023-09-19T07:21:39;100373.09;;;18.64;100.00
10060;BME280;5069;49.306;8.636;2023-09-19T07:24:41;100384.72;;;18.63;100.00
10060;BME280;5069;49.306;8.636;2023-09-19T07:27:43;100380.38;;;18.75;100.00
10060;BME280;5069;49.306;8.636;2023-09-19T07:30:44;100387.25;;;18.79;100.00
10060;BME280;5069;49.306;8.636;2023-09-19T07:33:46;100382.66;;;18.93;100.00
10060;BME280;5069;49.306;8.636;2023-09-19T07:36:47;100389.75;;;19.07;100.00
10060;BME280;5069;49.306;8.636;2023-09-19T07:39:49;100401.06;;;19.11;100.00
10060;BME280;5069;49.306;8.636;2023-09-19T07:42:52;100399.59;;;19.19;100.00
10060;BME280;5069;49.306;8.636;2023-09-19T07:45:53;100396.47;;;19.13;100.00
10060;BME280;5069;49.306;8.636;2023-09-19T07:48:55;100405.03;;;19.18;100.00
10060;BME280;5069;49.306;8.636;2023-09-19T07:51:57;100401.50;;;19.17;100.00
10060;BME280;5069;49.306;8.636;2023-09-19T07:54:59;100404.28;;;19.28;100.00
10060;BME280;5069;49.306;8.636;2023-09-19T07:58:03;100411.88;;;19.22;100.00
10060;BME280;5069;49.306;8.636;2023-09-19T08:01:09;100411.78;;;19.36;99.94
10060;BME280;5069;49.306;8.636;2023-09-19T08:04:11;100409.44;;;19.57;100.00
10060;BME280;5069;49.306;8.636;2023-09-19T08:07:13;100411.03;;;19.72;99.18
10060;BME280;5069;49.306;8.636;2023-09-19T08:10:15;100415.41;;;19.73;98.50
10060;BME280;5069;49.306;8.636;2023-09-19T08:13:17;100424.81;;;19.40;94.59
10060;BME280;5069;49.306;8.636;2023-09-19T08:16:19;100419.94;;;19.47;97.02
10060;BME280;5069;49.306;8.636;2023-09-19T08:19:24;100422.03;;;19.29;95.46
10060;BME280;5069;49.306;8.636;2023-09-19T08:22:29;100430.59;;;19.34;97.97
10060;BME280;5069;49.306;8.636;2023-09-19T08:25:33;100426.53;;;19.42;95.85
10060;BME280;5069;49.306;8.636;2023-09-19T08:28:35;100435.84;;;19.49;93.68
10060;BME280;5069;49.306;8.636;2023-09-19T08:31:37;100434.91;;;19.62;91.88
10060;BME280;5069;49.306;8.636;2023-09-19T08:34:39;100425.59;;;19.55;91.83
10060;BME280;5069;49.306;8.636;2023-09-19T08:37:42;100433.69;;;19.54;93.80
10060;BME280;5069;49.306;8.636;2023-09-19T08:40:43;100432.84;;;19.66;93.38
10060;BME280;5069;49.306;8.636;2023-09-19T08:43:45;100444.06;;;19.71;89.68
10060;BME280;5069;49.306;8.636;2023-09-19T08:46:49;100444.31;;;19.68;91.04
10060;BME280;5069;49.306;8.636;2023-09-19T08:53:06;100449.00;;;19.77;88.31
10060;BME280;5069;49.306;8.636;2023-09-19T08:56:12;100448.56;;;19.83;86.54
10060;BME280;5069;49.306;8.636;2023-09-19T08:59:15;100443.00;;;19.61;81.58
10060;BME280;5069;49.306;8.636;2023-09-19T09:02:18;100445.16;;;19.81;82.03
10060;BME280;5069;49.306;8.636;2023-09-19T09:05:23;100446.41;;;19.88;78.15
10060;BME280;5069;49.306;8.636;2023-09-19T09:08:26;100441.19;;;19.87;77.68
10060;BME280;5069;49.306;8.636;2023-09-19T09:11:27;100445.97;;;19.94;79.47
10060;BME280;5069;49.306;8.636;2023-09-19T09:14:30;100449.91;;;20.14;74.76
10060;BME280;5069;49.306;8.636;2023-09-19T09:17:32;100445.00;;;20.08;72.73
10060;BME280;5069;49.306;8.636;2023-09-19T09:20:33;100444.06;;;19.96;75.43
10060;BME280;5069;49.306;8.636;2023-09-19T09:23:35;100443.63;;;20.02;71.62
10060;BME280;5069;49.306;8.636;2023-09-19T09:29:48;100449.31;;;19.85;74.51
10060;BME280;5069;49.306;8.636;2023-09-19T09:33:07;100445.16;;;19.81;73.27
10060;BME280;5069;49.306;8.636;2023-09-19T09:36:13;100443.63;;;19.90;72.83
10060;BME280;5069;49.306;8.636;2023-09-19T09:39:30;100456.47;;;19.72;70.69
10060;BME280;5069;49.306;8.636;2023-09-19T09:42:34;100450.72;;;19.78;71.39
10060;BME280;5069;49.306;8.636;2023-09-19T09:45:42;100452.31;;;19.93;68.26
10060;BME280;5069;49.306;8.636;2023-09-19T09:49:02;100458.63;;;19.67;69.07
10060;BME280;5069;49.306;8.636;2023-09-19T09:52:19;100447.50;;;19.86;68.94
10060;BME280;5069;49.306;8.636;2023-09-19T09:55:26;100451.50;;;20.16;67.97
10060;BME280;5069;49.306;8.636;2023-09-19T09:58:28;100451.28;;;20.32;66.14
10060;BME280;5069;49.306;8.636;2023-09-19T10:01:47;100447.66;;;20.33;65.14
10060;BME280;5069;49.306;8.636;2023-09-19T10:04:51;100437.69;;;20.59;64.40
10060;BME280;5069;49.306;8.636;2023-09-19T10:08:11;100444.38;;;20.88;64.07
10060;BME280;5069;49.306;8.636;2023-09-19T10:11:17;100442.72;;;20.98;63.75
10060;BME280;5069;49.306;8.636;2023-09-19T10:14:24;100442.25;;;21.28;62.89
10060;BME280;5069;49.306;8.636;2023-09-19T10:17:28;100441.28;;;21.40;60.09
10060;BME280;5069;49.306;8.636;2023-09-19T10:20:32;100441.91;;;21.44;59.88
10060;BME280;5069;49.306;8.636;2023-09-19T10:23:33;100439.22;;;21.44;58.88
10060;BME280;5069;49.306;8.636;2023-09-19T10:26:36;100429.63;;;21.53;59.21
10060;BME280;5069;49.306;8.636;2023-09-19T10:29:39;100431.19;;;21.66;58.88
10060;BME280;5069;49.306;8.636;2023-09-19T10:32:41;100424.75;;;21.69;56.65
10060;BME280;5069;49.306;8.636;2023-09-19T10:35:44;100431.81;;;21.81;56.77
10060;BME280;5069;49.306;8.636;2023-09-19T10:38:47;100428.50;;;21.55;56.66
10060;BME280;5069;49.306;8.636;2023-09-19T10:41:53;100430.59;;;21.52;55.82
10060;BME280;5069;49.306;8.636;2023-09-19T10:44:57;100431.91;;;21.46;56.64
10060;BME280;5069;49.306;8.636;2023-09-19T10:48:02;100418.72;;;21.43;57.34
10060;BME280;5069;49.306;8.636;2023-09-19T10:51:10;100431.75;;;21.36;55.42
10060;BME280;5069;49.306;8.636;2023-09-19T10:54:15;100433.88;;;21.55;55.75
10060;BME280;5069;49.306;8.636;2023-09-19T10:57:21;100422.91;;;21.80;55.65
10060;BME280;5069;49.306;8.636;2023-09-19T11:00:25;100422.94;;;22.03;55.85
10060;BME280;5069;49.306;8.636;2023-09-19T11:03:27;100426.47;;;22.03;54.96
10060;BME280;5069;49.306;8.636;2023-09-19T11:06:32;100418.75;;;21.99;56.32
10060;BME280;5069;49.306;8.636;2023-09-19T11:12:49;100409.66;;;22.33;53.75
10060;BME280;5069;49.306;8.636;2023-09-19T11:18:59;100412.56;;;22.52;52.33
10060;BME280;5069;49.306;8.636;2023-09-19T11:22:02;100414.34;;;22.31;51.81
10060;BME280;5069;49.306;8.636;2023-09-19T11:28:33;100407.00;;;22.22;53.30
10060;BME280;5069;49.306;8.636;2023-09-19T11:31:44;100394.59;;;22.21;52.63
10060;BME280;5069;49.306;8.636;2023-09-19T11:34:46;100401.78;;;22.20;53.80
10060;BME280;5069;49.306;8.636;2023-09-19T11:47:32;100387.53;;;21.75;55.48
10060;BME280;5069;49.306;8.636;2023-09-19T11:50:36;100375.69;;;22.00;54.64
10060;BME280;5069;49.306;8.636;2023-09-19T11:53:45;100377.88;;;22.06;53.54
10060;BME280;5069;49.306;8.636;2023-09-19T11:56:50;100373.59;;;22.26;52.46
10060;BME280;5069;49.306;8.636;2023-09-19T11:59:53;100369.91;;;22.27;52.69
10060;BME280;5069;49.306;8.636;2023-09-19T12:02:56;100375.16;;;22.29;51.55
10060;BME280;5069;49.306;8.636;2023-09-19T12:06:13;100370.78;;;22.59;49.77
10060;BME280;5069;49.306;8.636;2023-09-19T12:09:15;100377.13;;;22.90;50.47
10060;BME280;5069;49.306;8.636;2023-09-19T12:12:27;100366.13;;;22.93;46.66
10060;BME280;5069;49.306;8.636;2023-09-19T12:15:29;100367.56;;;22.97;48.44
10060;BME280;5069;49.306;8.636;2023-09-19T12:18:36;100358.97;;;22.83;47.70
10060;BME280;5069;49.306;8.636;2023-09-19T12:21:37;100361.19;;;22.78;48.41
10060;BME280;5069;49.306;8.636;2023-09-19T12:24:39;100355.03;;;22.87;48.67
10060;BME280;5069;49.306;8.636;2023-09-19T12:27:48;100350.50;;;22.87;48.94
10060;BME280;5069;49.306;8.636;2023-09-19T12:30:51;100353.19;;;22.87;48.73
10060;BME280;5069;49.306;8.636;2023-09-19T12:33:56;100344.28;;;22.87;49.46
10060;BME280;5069;49.306;8.636;2023-09-19T12:37:12;100343.03;;;23.12;49.13
10060;BME280;5069;49.306;8.636;2023-09-19T12:40:14;100334.28;;;23.40;48.85
10060;BME280;5069;49.306;8.636;2023-09-19T12:43:19;100339.44;;;23.53;47.64
10060;BME280;5069;49.306;8.636;2023-09-19T12:46:21;100324.44;;;23.60;45.77
10060;BME280;5069;49.306;8.636;2023-09-19T12:49:26;100335.81;;;23.63;46.21
10060;BME280;5069;49.306;8.636;2023-09-19T12:52:34;100326.81;;;23.53;46.69
10060;BME280;5069;49.306;8.636;2023-09-19T12:55:37;100331.47;;;23.81;47.05
10060;BME280;5069;49.306;8.636;2023-09-19T12:58:52;100323.91;;;23.66;46.86
10060;BME280;5069;49.306;8.636;2023-09-19T13:02:04;100323.28;;;23.53;46.78
10060;BME280;5069;49.306;8.636;2023-09-19T13:05:08;100318.69;;;23.74;47.18
10060;BME280;5069;49.306;8.636;2023-09-19T13:08:20;100320.44;;;23.94;45.75
10060;BME280;5069;49.306;8.636;2023-09-19T13:11:22;100311.06;;;23.79;45.44
10060;BME280;5069;49.306;8.636;2023-09-19T13:14:25;100324.94;;;23.74;45.10
10060;BME280;5069;49.306;8.636;2023-09-19T13:17:42;100326.06;;;23.81;45.25
10060;BME280;5069;49.306;8.636;2023-09-19T13:21:10;100308.97;;;23.92;45.82
10060;BME280;5069;49.306;8.636;2023-09-19T13:24:24;100309.13;;;24.00;45.17
10060;BME280;5069;49.306;8.636;2023-09-19T13:27:28;100308.56;;;24.16;45.66
10060;BME280;5069;49.306;8.636;2023-09-19T13:30:30;100308.84;;;24.03;45.53
10060;BME280;5069;49.306;8.636;2023-09-19T13:33:34;100303.47;;;24.13;46.16
10060;BME280;5069;49.306;8.636;2023-09-19T13:36:35;100312.25;;;24.05;45.67
10060;BME280;5069;49.306;8.636;2023-09-19T13:39:38;100310.84;;;24.11;46.04
10060;BME280;5069;49.306;8.636;2023-09-19T13:42:43;100306.91;;;24.24;45.81
10060;BME280;5069;49.306;8.636;2023-09-19T13:45:45;100304.34;;;24.33;45.33
10060;BME280;5069;49.306;8.636;2023-09-19T13:48:46;100301.66;;;24.52;44.36
10060;BME280;5069;49.306;8.636;2023-09-19T13:51:48;100299.53;;;24.46;44.61
10060;BME280;5069;49.306;8.636;2023-09-19T13:54:53;100291.59;;;24.44;44.84
10060;BME280;5069;49.306;8.636;2023-09-19T13:57:57;100288.75;;;24.55;45.26
10060;BME280;5069;49.306;8.636;2023-09-19T14:00:59;100279.28;;;24.42;45.65
10060;BME280;5069;49.306;8.636;2023-09-19T14:04:01;100283.69;;;24.43;45.70
10060;BME280;5069;49.306;8.636;2023-09-19T14:07:03;100298.63;;;24.84;45.85
10060;BME280;5069;49.306;8.636;2023-09-19T14:10:05;100293.56;;;24.71;44.91
10060;BME280;5069;49.306;8.636;2023-09-19T14:13:10;100282.31;;;24.85;44.45
10060;BME280;5069;49.306;8.636;2023-09-19T14:16:15;100284.75;;;24.69;45.17
10060;BME280;5069;49.306;8.636;2023-09-19T14:19:18;100286.91;;;24.56;45.12
10060;BME280;5069;49.306;8.636;2023-09-19T14:22:19;100281.09;;;24.70;45.03
10060;BME280;5069;49.306;8.636;2023-09-19T14:25:21;100272.88;;;24.72;45.00
10060;BME280;5069;49.306;8.636;2023-09-19T14:28:24;100278.41;;;24.60;45.21
10060;BME280;5069;49.306;8.636;2023-09-19T14:31:26;100270.53;;;24.86;45.15
10060;BME280;5069;49.306;8.636;2023-09-19T14:34:29;100273.22;;;25.05;44.47
10060;BME280;5069;49.306;8.636;2023-09-19T14:37:30;100275.72;;;24.60;44.33
10060;BME280;5069;49.306;8.636;2023-09-19T14:40:32;100284.50;;;24.34;45.45
10060;BME280;5069;49.306;8.636;2023-09-19T14:43:34;100276.41;;;24.14;45.77
10060;BME280;5069;49.306;8.636;2023-09-19T14:46:36;100277.09;;;24.16;46.98
10060;BME280;5069;49.306;8.636;2023-09-19T14:49:37;100264.66;;;24.35;46.66
10060;BME280;5069;49.306;8.636;2023-09-19T14:52:39;100265.63;;;24.62;46.39
10060;BME280;5069;49.306;8.636;2023-09-19T14:55:41;100257.28;;;24.46;45.45
10060;BME280;5069;49.306;8.636;2023-09-19T14:58:45;100271.34;;;24.31;46.16
10060;BME280;5069;49.306;8.636;2023-09-19T15:01:48;100267.78;;;24.30;46.82
10060;BME280;5069;49.306;8.636;2023-09-19T15:04:52;100262.69;;;24.37;46.63
10060;BME280;5069;49.306;8.636;2023-09-19T15:07:54;100269.41;;;23.93;47.61
10060;BME280;5069;49.306;8.636;2023-09-19T15:10:56;100263.47;;;23.79;48.14
10060;BME280;5069;49.306;8.636;2023-09-19T15:13:59;100263.75;;;23.86;47.93
10060;BME280;5069;49.306;8.636;2023-09-19T15:17:01;100253.00;;;23.96;48.19
10060;BME280;5069;49.306;8.636;2023-09-19T15:20:06;100243.63;;;24.09;48.28
10060;BME280;5069;49.306;8.636;2023-09-19T15:23:08;100258.09;;;23.89;47.99
10060;BME280;5069;49.306;8.636;2023-09-19T15:26:13;100249.84;;;23.81;48.50
10060;BME280;5069;49.306;8.636;2023-09-19T15:29:15;100257.09;;;23.90;49.08
10060;BME280;5069;49.306;8.636;2023-09-19T15:32:17;100256.31;;;24.18;48.17
10060;BME280;5069;49.306;8.636;2023-09-19T15:35:19;100251.03;;;24.17;48.20
10060;BME280;5069;49.306;8.636;2023-09-19T15:38:20;100244.78;;;24.07;48.89
10060;BME280;5069;49.306;8.636;2023-09-19T15:41:22;100238.38;;;23.88;48.79
10060;BME280;5069;49.306;8.636;2023-09-19T15:44:23;100245.63;;;23.88;49.05
10060;BME280;5069;49.306;8.636;2023-09-19T15:47:27;100238.81;;;23.84;49.64
10060;BME280;5069;49.306;8.636;2023-09-19T15:50:30;100242.19;;;23.76;50.23
10060;BME280;5069;49.306;8.636;2023-09-19T15:53:44;100236.25;;;23.73;49.95
10060;BME280;5069;49.306;8.636;2023-09-19T15:56:46;100234.00;;;23.78;50.07
10060;BME280;5069;49.306;8.636;2023-09-19T15:59:49;100232.88;;;23.80;50.23
10060;BME280;5069;49.306;8.636;2023-09-19T16:02:51;100227.75;;;23.87;50.01
10060;BME280;5069;49.306;8.636;2023-09-19T16:05:53;100220.41;;;23.79;50.82
10060;BME280;5069;49.306;8.636;2023-09-19T16:08:57;100228.31;;;23.71;51.17
10060;BME280;5069;49.306;8.636;2023-09-19T16:11:59;100223.22;;;23.68;50.57
10060;BME280;5069;49.306;8.636;2023-09-19T16:15:01;100223.78;;;23.81;51.14
10060;BME280;5069;49.306;8.636;2023-09-19T16:18:02;100234.16;;;23.86;51.29
10060;BME280;5069;49.306;8.636;2023-09-19T16:21:06;100223.09;;;23.89;51.33
10060;BME280;5069;49.306;8.636;2023-09-19T16:24:12;100221.81;;;23.93;50.45
10060;BME280;5069;49.306;8.636;2023-09-19T16:27:13;100226.94;;;23.96;50.61
10060;BME280;5069;49.306;8.636;2023-09-19T16:30:16;100225.78;;;23.89;51.20
10060;BME280;5069;49.306;8.636;2023-09-19T16:33:19;100227.75;;;23.87;51.01
10060;BME280;5069;49.306;8.636;2023-09-19T16:36:21;100223.22;;;23.78;51.26
10060;BME280;5069;49.306;8.636;2023-09-19T16:39:23;100224.63;;;23.72;51.20
10060;BME280;5069;49.306;8.636;2023-09-19T16:42:25;100218.38;;;23.62;51.14
10060;BME280;5069;49.306;8.636;2023-09-19T16:45:28;100221.47;;;23.48;51.62